Time;durP1;ratioP1;P1;durP2;ratioP2;P2;SDS_P1;SDS_P2;PMS_P1;PMS_P2;Temp;Humidity;BMP_temperature;BMP_pressure;BME280_temperature;BME280_humidity;BME280_pressure;Samples;Min_cycle;Max_cycle;Signal;HPM_P1;HPM_P2
2022/06/14 00:01:31;;;;;;;2.85;1.77;;;;;;;22.07;46.27;98878.16;1686276;85;21109;-76
2022/06/14 00:03:59;;;;;;;2.25;1.70;;;;;;;22.04;46.56;98876.22;1686098;85;21673;-76
2022/06/14 00:06:29;;;;;;;3.25;1.75;;;;;;;22.01;46.92;98874.69;1686228;85;21142;-76
2022/06/14 00:08:57;;;;;;;3.75;1.60;;;;;;;21.96;46.30;98874.78;1686190;85;21096;-76
2022/06/14 00:11:29;;;;;;;3.35;1.82;;;;;;;21.93;46.28;98873.72;1686108;85;21020;-76
2022/06/14 00:13:57;;;;;;;3.17;2.00;;;;;;;21.89;46.17;98872.66;1685421;85;21025;-75
2022/06/14 00:16:25;;;;;;;1.85;1.67;;;;;;;21.87;46.17;98869.28;1696155;84;21550;-76
2022/06/14 00:18:52;;;;;;;1.92;1.60;;;;;;;21.85;46.32;98866.37;1701298;84;21151;-75
2022/06/14 00:21:19;;;;;;;1.80;1.67;;;;;;;21.82;46.65;98866.18;1700895;84;21087;-76
2022/06/14 00:23:49;;;;;;;2.58;2.17;;;;;;;21.78;46.50;98865.25;1701499;84;21142;-76
2022/06/14 00:26:16;;;;;;;3.15;1.80;;;;;;;21.73;46.54;98860.81;1700880;84;21063;-75
2022/06/14 00:28:43;;;;;;;3.50;1.40;;;;;;;21.69;46.40;98865.61;1701206;84;21638;-75
2022/06/14 00:31:17;;;;;;;4.35;1.80;;;;;;;21.66;46.44;98864.55;1701124;84;21144;-75
2022/06/14 00:33:44;;;;;;;9.05;2.12;;;;;;;21.62;46.57;98857.29;1701360;84;21524;-75
2022/06/14 00:36:32;;;;;;;5.72;1.85;;;;;;;21.61;46.86;98857.42;1701357;84;21103;-75
2022/06/14 00:39:03;;;;;;;5.97;1.60;;;;;;;21.58;47.23;98857.70;1700709;84;21581;-75
2022/06/14 00:41:43;;;;;;;2.10;1.77;;;;;;;21.54;47.23;98851.78;1695401;84;21082;-75
2022/06/14 00:44:20;;;;;;;1.87;1.70;;;;;;;21.53;47.44;98852.76;1672933;85;21239;-75
2022/06/14 00:47:04;;;;;;;6.58;2.10;;;;;;;21.51;47.47;98849.38;1671997;85;21116;-76
2022/06/14 00:49:46;;;;;;;5.50;1.75;;;;;;;21.51;47.76;98850.22;1672934;85;21033;-76
2022/06/14 00:52:29;;;;;;;1.67;1.57;;;;;;;21.50;47.71;98847.68;1672990;85;21097;-76
2022/06/14 00:55:02;;;;;;;5.60;1.75;;;;;;;21.47;47.60;98846.14;1673334;85;21152;-76
2022/06/14 00:57:40;;;;;;;2.92;1.82;;;;;;;21.48;47.69;98843.80;1672248;85;21149;-76
2022/06/14 01:00:15;;;;;;;2.02;1.85;;;;;;;21.48;47.76;98843.80;1670461;85;21129;-77
2022/06/14 01:02:50;;;;;;;6.92;1.80;;;;;;;21.45;47.76;98842.73;1672834;85;21156;-76
2022/06/14 01:06:05;;;;;;;7.22;1.62;;;;;;;21.43;47.67;98846.02;1672806;85;21062;-76
2022/06/14 01:08:05;;;;;;;6.25;1.87;;;;;;;21.42;47.76;98837.66;1660888;85;21152;-77
2022/06/14 01:10:31;;;;;;;3.15;1.70;;;;;;;21.40;47.96;98838.30;1673189;85;21100;-77
2022/06/14 01:13:00;;;;;;;6.80;2.12;;;;;;;21.40;48.21;98834.75;1672977;85;20930;-76
2022/06/14 01:15:33;;;;;;;4.12;1.65;;;;;;;21.38;47.96;98835.39;1672895;85;21045;-73
2022/06/14 01:18:07;;;;;;;5.20;1.77;;;;;;;21.36;47.80;98840.04;1670218;85;21067;-74
2022/06/14 01:20:36;;;;;;;1.95;1.72;;;;;;;21.34;47.77;98834.83;1670669;85;21029;-74
2022/06/14 01:23:08;;;;;;;3.62;1.82;;;;;;;21.33;47.60;98834.45;1670253;85;21551;-74
2022/06/14 01:25:45;;;;;;;2.55;1.82;;;;;;;21.34;47.84;98832.14;1670206;85;21111;-77
2022/06/14 01:28:13;;;;;;;5.25;2.08;;;;;;;21.29;47.88;98835.23;1670511;85;21186;-76
2022/06/14 01:30:45;;;;;;;4.62;1.87;;;;;;;21.25;47.89;98841.86;1670408;85;21169;-74
2022/06/14 01:33:19;;;;;;;5.78;2.05;;;;;;;21.22;47.87;98839.95;1670587;85;21114;-74
2022/06/14 01:35:53;;;;;;;2.17;1.77;;;;;;;21.18;47.75;98839.86;1686534;83;21116;-74
2022/06/14 01:38:19;;;;;;;1.82;1.50;;;;;;;21.14;47.50;98841.96;1698553;84;21074;-74
2022/06/14 01:41:09;;;;;;;3.17;1.45;;;;;;;21.10;47.18;98831.20;1698445;84;21123;-73
2022/06/14 01:44:02;;;;;;;3.77;1.55;;;;;;;21.09;47.31;98833.00;1698254;84;21086;-74
2022/06/14 01:46:34;;;;;;;2.25;1.50;;;;;;;21.06;46.82;98833.77;1698689;84;21059;-74
2022/06/14 01:52:33;;;;;;;1.60;1.50;;;;;;;21.02;46.67;98823.84;1698487;84;21151;-74
2022/06/14 01:55:40;;;;;;;1.50;1.40;;;;;;;21.02;46.71;98819.00;1698498;84;21431;-75
2022/06/14 01:58:15;;;;;;;2.55;1.62;;;;;;;21.00;46.79;98817.79;1698109;84;22065;-75
2022/06/14 02:00:50;;;;;;;1.65;1.47;;;;;;;21.01;46.86;98822.14;1698631;84;21182;-74
2022/06/14 02:06:24;;;;;;;5.72;1.87;;;;;;;20.99;46.84;98816.09;1698372;84;21635;-75
2022/06/14 02:09:02;;;;;;;2.70;2.20;;;;;;;20.99;46.80;98812.08;1698463;84;21670;-75
2022/06/14 02:11:33;;;;;;;4.58;2.08;;;;;;;20.98;46.79;98818.42;1698437;84;21087;-75
2022/06/14 02:14:23;;;;;;;2.65;2.45;;;;;;;20.98;46.90;98818.42;1698458;84;21093;-75
2022/06/14 02:17:09;;;;;;;3.50;1.85;;;;;;;20.98;47.01;98825.11;1669342;84;21533;-74
2022/06/14 02:19:44;;;;;;;4.10;1.85;;;;;;;20.95;47.05;98821.37;1693432;84;21108;-75
2022/06/14 02:22:15;;;;;;;2.98;1.77;;;;;;;20.93;47.29;98823.31;1693604;84;21127;-75
2022/06/14 02:24:55;;;;;;;2.37;1.40;;;;;;;20.89;47.49;98817.89;1693437;84;21525;-75
2022/06/14 02:27:35;;;;;;;4.70;1.70;;;;;;;20.86;47.84;98816.82;1693183;84;21593;-75
2022/06/14 02:30:13;;;;;;;2.25;1.65;;;;;;;20.82;47.95;98819.42;1693271;84;21110;-75
2022/06/14 02:32:44;;;;;;;1.72;1.62;;;;;;;20.77;48.17;98818.48;1693558;84;21087;-75
2022/06/14 02:35:15;;;;;;;3.17;1.95;;;;;;;20.72;48.35;98818.88;1693155;84;21151;-75
2022/06/14 02:37:53;;;;;;;7.30;1.52;;;;;;;20.70;48.35;98820.84;1693759;84;21080;-75
2022/06/14 02:40:39;;;;;;;2.92;1.95;;;;;;;20.70;48.70;98816.00;1693222;84;21107;-74
2022/06/14 02:43:17;;;;;;;3.98;1.70;;;;;;;20.69;48.84;98814.30;1693961;84;21119;-75
2022/06/14 02:46:01;;;;;;;8.48;2.02;;;;;;;20.70;49.01;98817.34;1689491;84;21091;-75
2022/06/14 02:48:36;;;;;;;5.75;2.42;;;;;;;20.68;49.15;98819.28;1691338;83;21150;-75
2022/06/14 02:51:20;;;;;;;2.50;2.00;;;;;;;20.65;49.63;98816.91;1678861;83;21125;-75
2022/06/14 02:54:04;;;;;;;3.58;1.92;;;;;;;20.58;49.85;98814.72;1648765;87;21102;-75
2022/06/14 02:56:40;;;;;;;2.33;2.10;;;;;;;20.56;50.20;98814.48;1649871;86;21693;-74
2022/06/14 02:59:30;;;;;;;4.50;2.10;;;;;;;20.56;50.29;98805.13;1648712;86;21071;-75
2022/06/14 03:02:01;;;;;;;3.92;2.30;;;;;;;20.57;50.55;98804.16;1648530;86;22245;-76
2022/06/14 03:04:46;;;;;;;5.12;2.10;;;;;;;20.60;50.45;98790.53;1677240;85;21553;-75
2022/06/14 03:07:31;;;;;;;7.08;2.35;;;;;;;20.62;50.47;98788.56;1648363;87;21018;-75
2022/06/14 03:09:57;;;;;;;2.58;2.37;;;;;;;20.66;50.61;98785.16;1650372;86;21468;-75
2022/06/14 03:12:42;;;;;;;3.17;2.10;;;;;;;20.68;50.87;98793.41;1648439;87;21077;-75
2022/06/14 03:15:35;;;;;;;4.17;2.20;;;;;;;20.71;50.86;98793.16;1648581;87;21034;-75
2022/06/14 03:18:19;;;;;;;3.67;1.90;;;;;;;20.74;50.84;98790.18;1635850;86;21126;-75
2022/06/14 03:21:04;;;;;;;3.65;2.20;;;;;;;20.78;50.93;98790.28;1663258;85;21090;-75
2022/06/14 03:23:52;;;;;;;3.85;1.90;;;;;;;20.81;50.97;98785.64;1634583;87;21585;-75
2022/06/14 03:26:44;;;;;;;3.47;2.00;;;;;;;20.86;51.12;98788.75;1635994;87;21165;-75
2022/06/14 03:29:25;;;;;;;8.80;2.40;;;;;;;20.90;51.35;98794.19;1634756;86;21075;-75
2022/06/14 03:31:59;;;;;;;4.50;2.00;;;;;;;20.87;52.01;98812.67;1633600;87;21491;-74
2022/06/14 03:34:32;;;;;;;5.60;2.30;;;;;;;20.80;52.11;98833.42;1634751;87;21692;-76
2022/06/14 03:37:00;;;;;;;16.70;2.70;;;;;;;20.65;52.35;98843.63;1634989;87;21154;-75
2022/06/14 03:39:34;;;;;;;14.60;3.02;;;;;;;20.51;52.80;98854.12;1662903;86;21078;-75
2022/06/14 03:42:03;;;;;;;8.60;3.10;;;;;;;20.43;53.20;98857.98;1647225;86;21111;-75
2022/06/14 03:44:31;;;;;;;10.35;3.90;;;;;;;20.33;53.88;98861.42;1686028;85;21163;-75
2022/06/14 03:47:15;;;;;;;15.75;3.87;;;;;;;20.24;54.04;98858.22;1666404;86;21109;-75
2022/06/14 03:49:51;;;;;;;7.42;3.67;;;;;;;20.14;54.41;98857.28;1666725;86;21439;-76
2022/06/14 03:52:38;;;;;;;;;;;;;;;20.03;55.08;98856.87;1669763;86;21169;-75
2022/06/14 03:55:37;;;;;;;6.83;4.20;;;;;;;19.91;55.42;98861.41;1666736;86;20174;-75
2022/06/14 03:58:18;;;;;;;4.92;4.08;;;;;;;19.81;56.31;98851.16;1666816;86;21090;-74
2022/06/14 04:00:53;;;;;;;6.58;4.22;;;;;;;19.78;56.64;98854.07;1666735;86;21067;-75
2022/06/14 04:03:32;;;;;;;8.15;4.60;;;;;;;19.83;56.63;98861.20;1667176;86;21825;-74
2022/06/14 04:06:40;;;;;;;10.53;4.33;;;;;;;19.89;56.75;98870.05;1667189;85;21542;-74
2022/06/14 04:09:25;;;;;;;8.98;4.25;;;;;;;19.93;56.41;98870.64;1671363;85;21117;-74
2022/06/14 04:12:20;;;;;;;5.37;4.37;;;;;;;19.98;56.31;98891.95;1671906;85;21070;-75
2022/06/14 04:15:32;;;;;;;12.60;4.72;;;;;;;20.02;56.78;98902.76;1671507;85;22164;-75
2022/06/14 04:18:35;;;;;;;21.45;5.12;;;;;;;19.96;56.75;98909.94;1671446;85;21007;-75
2022/06/14 04:21:29;;;;;;;14.13;5.60;;;;;;;19.87;57.25;98934.74;1671798;85;21030;-75
2022/06/14 04:24:11;;;;;;;12.55;4.92;;;;;;;19.72;57.37;98946.62;1671574;85;21125;-76
2022/06/14 04:26:58;;;;;;;15.28;5.80;;;;;;;19.57;57.87;98944.24;1671576;85;21522;-74
2022/06/14 04:29:48;;;;;;;13.83;6.22;;;;;;;19.46;58.57;98943.77;1671186;85;21088;-75
2022/06/14 04:32:29;;;;;;;13.98;5.20;;;;;;;19.34;59.10;98953.25;1671812;85;21140;-74
2022/06/14 04:35:16;;;;;;;12.03;4.35;;;;;;;19.21;59.44;98956.87;1671194;85;21075;-75
2022/06/14 04:37:51;;;;;;;11.55;4.53;;;;;;;19.12;60.37;98974.46;1671448;85;21553;-76
2022/06/14 04:40:26;;;;;;;;;;;;;;;19.06;61.08;98988.76;1672813;85;21087;-75
2022/06/14 04:43:04;;;;;;;9.13;4.50;;;;;;;18.90;61.67;98981.96;1672037;85;20187;-75
2022/06/14 04:45:41;;;;;;;16.62;4.17;;;;;;;18.81;62.10;98984.45;1666463;85;21141;-76
2022/06/14 04:48:12;;;;;;;11.65;3.37;;;;;;;18.79;62.97;98991.23;1622128;87;21540;-74
2022/06/14 04:50:46;;;;;;;10.85;3.50;;;;;;;18.71;63.16;99005.63;1640235;87;21163;-75
2022/06/14 04:53:17;;;;;;;11.10;3.20;;;;;;;18.66;63.53;98999.34;1609305;88;21538;-75
2022/06/14 04:55:55;;;;;;;14.25;3.50;;;;;;;18.63;64.16;99007.56;1621704;88;21061;-75
2022/06/14 04:58:30;;;;;;;6.97;2.70;;;;;;;18.46;64.67;99002.19;1639954;87;21193;-75
2022/06/14 05:01:00;;;;;;;13.80;2.72;;;;;;;18.27;64.94;98997.86;1593253;90;21159;-75
2022/06/14 05:03:36;;;;;;;7.55;3.12;;;;;;;18.14;65.41;99018.75;1624643;88;21052;-74
2022/06/14 05:06:13;;;;;;;8.40;2.72;;;;;;;18.01;65.92;99013.96;1593565;88;21612;-74
2022/06/14 05:08:52;;;;;;;4.90;2.40;;;;;;;17.94;66.04;99020.70;1623584;87;21589;-74
2022/06/14 05:11:34;;;;;;;19.37;2.25;;;;;;;17.93;66.09;99020.33;1593620;89;21682;-75
2022/06/14 05:14:20;;;;;;;8.35;2.30;;;;;;;17.88;66.48;99030.45;1625386;87;21024;-75
2022/06/14 05:16:59;;;;;;;7.05;2.62;;;;;;;17.86;66.71;99043.00;1597589;87;21098;-75
2022/06/14 05:19:40;;;;;;;6.33;2.10;;;;;;;17.88;66.92;99038.44;1648533;87;21517;-74
2022/06/14 05:22:33;;;;;;;17.75;3.08;;;;;;;17.90;66.86;99051.15;1643205;87;22101;-75
2022/06/14 05:24:59;;;;;;;4.75;1.70;;;;;;;17.85;66.79;99043.95;1658353;86;21150;-74
2022/06/14 05:27:43;;;;;;;7.05;1.52;;;;;;;17.78;66.55;99042.20;1665136;86;21505;-75
2022/06/14 05:30:24;;;;;;;3.92;1.85;;;;;;;17.75;66.61;99056.60;1667306;86;21124;-75
2022/06/14 05:33:19;;;;;;;10.15;1.95;;;;;;;17.72;66.86;99060.80;1670310;84;21059;-74
2022/06/14 05:35:54;;;;;;;3.77;2.00;;;;;;;17.69;67.01;99059.69;1653609;86;21664;-74
2022/06/14 05:38:45;;;;;;;2.98;1.75;;;;;;;17.66;67.42;99066.55;1666372;85;25942;-75
2022/06/14 05:41:21;;;;;;;3.05;2.00;;;;;;;17.64;67.39;99059.17;1665968;86;21015;-75
2022/06/14 05:43:50;;;;;;;5.03;1.87;;;;;;;17.72;67.76;99059.48;1666122;85;21089;-75
2022/06/14 05:46:30;;;;;;;7.90;1.75;;;;;;;17.76;67.49;99066.27;1666044;86;21020;-74
2022/06/14 05:49:07;;;;;;;4.95;1.85;;;;;;;17.83;67.30;99068.00;1666051;86;21111;-74
2022/06/14 05:51:40;;;;;;;4.47;1.60;;;;;;;17.83;67.02;99070.17;1666117;86;21937;-75
2022/06/14 05:54:29;;;;;;;5.10;1.25;;;;;;;17.86;66.73;99076.27;1665384;85;21146;-75
2022/06/14 05:57:16;;;;;;;10.38;2.00;;;;;;;17.91;67.22;99092.78;1683425;85;21559;-74
2022/06/14 05:59:53;;;;;;;8.78;1.77;;;;;;;17.98;66.67;99108.67;1683169;85;21194;-75
2022/06/14 06:02:32;;;;;;;5.25;1.80;;;;;;;18.05;66.27;99110.41;1666137;86;21063;-76
2022/06/14 06:05:12;;;;;;;1.62;1.52;;;;;;;18.11;66.20;99109.49;1655733;85;21113;-74
2022/06/14 06:07:46;;;;;;;9.38;2.20;;;;;;;18.09;65.87;99119.87;1655408;86;21060;-75
2022/06/14 06:10:17;;;;;;;1.75;1.65;;;;;;;18.02;65.85;99119.45;1655306;86;21635;-74
2022/06/14 06:12:52;;;;;;;4.03;1.32;;;;;;;17.97;65.50;99110.95;1655527;86;21587;-75
2022/06/14 06:15:30;;;;;;;7.03;2.45;;;;;;;17.94;65.22;99115.19;1655646;86;21151;-75
2022/06/14 06:18:08;;;;;;;2.65;1.15;;;;;;;17.90;66.06;99116.35;1658636;86;21211;-74
2022/06/14 06:20:49;;;;;;;11.57;2.45;;;;;;;17.83;66.15;99116.75;1661886;86;21505;-75
2022/06/14 06:23:27;;;;;;;13.70;2.55;;;;;;;17.75;68.15;99127.56;1662262;86;21601;-77
2022/06/14 06:25:54;;;;;;;2.42;1.62;;;;;;;17.59;69.29;99142.44;1662489;86;21122;-75
2022/06/14 06:28:29;;;;;;;10.13;1.40;;;;;;;17.45;70.42;99145.58;1662985;86;21179;-75
2022/06/14 06:31:21;;;;;;;6.80;1.77;;;;;;;17.30;70.50;99151.95;1662959;86;21474;-75
2022/06/14 06:33:51;;;;;;;8.90;1.80;;;;;;;17.21;71.17;99144.59;1655187;86;21630;-77
2022/06/14 06:36:56;;;;;;;1.30;1.07;;;;;;;17.04;71.75;99153.70;1662739;86;21163;-77
2022/06/14 06:39:39;;;;;;;2.00;1.00;;;;;;;16.87;72.99;99164.13;1662542;86;21095;-78
2022/06/14 06:42:44;;;;;;;2.35;0.98;;;;;;;16.67;73.92;99204.77;1663175;86;22036;-78
2022/06/14 06:45:24;;;;;;;3.75;1.30;;;;;;;16.48;74.49;99212.23;1662680;86;21139;-77
2022/06/14 06:48:02;;;;;;;4.45;1.50;;;;;;;16.28;75.11;99205.05;1661082;86;21057;-77
2022/06/14 06:50:39;;;;;;;3.95;1.57;;;;;;;16.14;75.53;99207.73;1641279;86;21080;-76
2022/06/14 06:53:15;;;;;;;4.08;1.42;;;;;;;16.05;76.39;99202.51;1641563;86;21079;-76
2022/06/14 06:56:00;;;;;;;;;;;;;;;16.08;77.47;99198.83;1643772;87;21574;-77
2022/06/14 06:58:37;;;;;;;4.70;1.75;;;;;;;16.08;78.06;99206.30;1641683;87;21147;-77
2022/06/14 07:01:14;;;;;;;2.60;1.70;;;;;;;16.04;77.97;99207.91;1640831;86;21131;-76
2022/06/14 07:03:47;;;;;;;2.05;1.42;;;;;;;15.98;78.30;99202.03;1640215;87;21581;-76
2022/06/14 07:06:24;;;;;;;2.15;1.65;;;;;;;16.01;78.87;99203.66;1641251;86;21119;-76
2022/06/14 07:09:15;;;;;;;7.12;1.90;;;;;;;16.02;78.30;99201.85;1641330;87;21071;-75
2022/06/14 07:11:48;;;;;;;4.92;2.08;;;;;;;16.04;78.76;99206.58;1630693;86;21117;-75
2022/06/14 07:14:23;;;;;;;8.53;2.67;;;;;;;15.99;78.70;99225.46;1641343;86;21605;-76
2022/06/14 07:17:06;;;;;;;3.72;1.90;;;;;;;16.06;79.05;99232.58;1641491;87;21142;-75
2022/06/14 07:20:02;;;;;;;4.37;1.57;;;;;;;16.16;78.82;99231.05;1663322;86;21018;-76
2022/06/14 07:22:39;;;;;;;2.22;1.75;;;;;;;16.29;78.12;99237.30;1691197;83;21030;-75
2022/06/14 07:25:23;;;;;;;1.32;1.20;;;;;;;16.49;78.23;99229.41;1680802;85;21525;-77
2022/06/14 07:28:01;;;;;;;3.70;1.57;;;;;;;16.75;77.16;99234.00;1677655;85;21088;-76
2022/06/14 07:30:32;;;;;;;3.10;1.55;;;;;;;16.97;76.12;99226.84;1675278;85;22378;-76
2022/06/14 07:33:00;;;;;;;6.42;1.57;;;;;;;17.05;73.90;99238.66;1675098;85;21165;-75
2022/06/14 07:35:31;;;;;;;1.62;1.50;;;;;;;17.01;72.74;99237.17;1675130;85;22052;-75
2022/06/14 07:38:24;;;;;;;3.77;1.67;;;;;;;16.94;72.20;99250.46;1651273;85;21745;-77
2022/06/14 07:41:03;;;;;;;4.85;1.55;;;;;;;16.85;71.37;99252.41;1675125;85;20899;-75
2022/06/14 07:43:41;;;;;;;1.40;1.30;;;;;;;16.72;71.91;99254.47;1675485;85;21069;-76
2022/06/14 07:46:11;;;;;;;2.67;1.75;;;;;;;16.73;72.17;99256.67;1674883;85;21081;-75
2022/06/14 07:48:54;;;;;;;1.60;1.37;;;;;;;16.68;71.75;99251.65;1674882;85;20975;-76
2022/06/14 07:51:35;;;;;;;2.27;1.52;;;;;;;16.68;71.22;99264.94;1675061;85;21566;-75
2022/06/14 07:54:08;;;;;;;3.72;1.62;;;;;;;16.64;69.88;99258.12;1675174;85;21074;-75
2022/06/14 07:56:55;;;;;;;1.92;1.57;;;;;;;16.67;70.37;99255.24;1674635;85;21148;-76
2022/06/14 07:59:32;;;;;;;4.42;1.20;;;;;;;16.77;70.10;99257.33;1665451;85;21027;-75
2022/06/14 08:02:04;;;;;;;2.60;1.45;;;;;;;16.89;69.65;99253.45;1675068;85;21096;-76
2022/06/14 08:04:41;;;;;;;1.47;1.17;;;;;;;17.05;69.04;99259.92;1675375;85;21123;-75
2022/06/14 08:07:14;;;;;;;3.15;0.95;;;;;;;17.23;69.65;99271.62;1674818;85;21821;-75
2022/06/14 08:09:46;;;;;;;1.82;1.07;;;;;;;17.38;66.13;99265.31;1675333;85;21131;-75
2022/06/14 08:12:43;;;;;;;2.60;0.98;;;;;;;17.54;65.72;99265.60;1675191;85;21078;-75
2022/06/14 08:15:26;;;;;;;3.10;1.07;;;;;;;17.73;64.93;99265.20;1675192;85;21080;-75
2022/06/14 08:18:22;;;;;;;1.37;0.75;;;;;;;17.91;63.92;99260.46;1674129;85;21240;-76
2022/06/14 08:21:18;;;;;;;2.75;0.80;;;;;;;18.06;61.55;99268.71;1628067;86;21012;-77
2022/06/14 08:23:56;;;;;;;0.62;0.60;;;;;;;18.08;60.88;99264.61;1667828;86;21070;-75
2022/06/14 08:26:51;;;;;;;1.40;0.72;;;;;;;18.11;60.33;99293.69;1668105;86;21564;-76
2022/06/14 08:29:26;;;;;;;0.95;0.80;;;;;;;18.15;58.74;99280.03;1668257;86;21014;-76
2022/06/14 08:32:06;;;;;;;2.30;0.68;;;;;;;18.19;57.79;99285.53;1668325;86;21851;-76
2022/06/14 08:34:54;;;;;;;3.60;0.65;;;;;;;18.17;59.35;99267.48;1668040;86;21580;-76
2022/06/14 08:37:42;;;;;;;2.33;1.00;;;;;;;18.32;57.73;99282.84;1667993;86;21073;-76
2022/06/14 08:40:38;;;;;;;2.05;1.20;;;;;;;18.51;57.96;99289.56;1705810;83;21550;-75
2022/06/14 08:43:10;;;;;;;1.22;1.12;;;;;;;18.63;58.05;99301.16;1725592;83;21011;-76
2022/06/14 08:45:46;;;;;;;1.52;1.15;;;;;;;18.67;57.97;99301.30;1725374;83;21425;-75
2022/06/14 08:48:42;;;;;;;3.30;1.10;;;;;;;18.63;56.71;99295.83;1725560;83;21053;-76
2022/06/14 08:51:21;;;;;;;4.22;1.30;;;;;;;18.56;58.06;99309.58;1723997;83;21138;-74
2022/06/14 08:54:27;;;;;;;4.72;1.42;;;;;;;18.48;58.28;99309.27;1724136;83;21027;-76
2022/06/14 08:57:27;;;;;;;2.55;0.90;;;;;;;18.50;58.90;99307.34;1725033;83;21011;-75
2022/06/14 09:00:26;;;;;;;1.37;0.90;;;;;;;18.59;57.20;99294.33;1724857;83;21676;-75
2022/06/14 09:03:32;;;;;;;2.83;1.10;;;;;;;18.68;55.19;99298.52;1724567;83;21101;-75
2022/06/14 09:06:13;;;;;;;1.17;1.07;;;;;;;18.77;54.83;99298.33;1725235;83;21051;-76
2022/06/14 09:09:15;;;;;;;1.70;1.00;;;;;;;18.91;55.46;99300.91;1723734;83;21529;-76
2022/06/14 09:12:20;;;;;;;1.40;1.00;;;;;;;19.09;53.95;99309.84;1725069;83;21149;-76
2022/06/14 09:14:57;;;;;;;;;;;;;;;19.20;55.44;99301.91;1727322;83;21089;-76
2022/06/14 09:17:39;;;;;;;2.12;1.05;;;;;;;19.26;53.55;99304.10;1699711;83;39788;-75
2022/06/14 09:20:30;;;;;;;6.92;1.12;;;;;;;19.26;54.66;99314.77;1676664;82;21133;-75
2022/06/14 09:23:05;;;;;;;1.00;0.90;;;;;;;19.27;54.97;99307.16;1694530;84;21084;-76
2022/06/14 09:25:59;;;;;;;2.87;1.10;;;;;;;19.29;54.13;99319.89;1700842;84;21010;-76
2022/06/14 09:28:53;;;;;;;6.72;1.32;;;;;;;19.30;54.46;99309.59;1701538;84;21110;-76
2022/06/14 09:31:31;;;;;;;1.20;1.10;;;;;;;19.22;54.66;99330.65;1701129;84;21148;-76
2022/06/14 09:34:40;;;;;;;1.92;1.40;;;;;;;19.12;54.39;99328.29;1701588;84;21089;-77
2022/06/14 09:37:31;;;;;;;1.35;1.10;;;;;;;19.08;54.37;99326.80;1701180;84;21082;-76
2022/06/14 09:40:48;;;;;;;1.20;1.10;;;;;;;19.00;53.96;99326.53;1701627;84;21128;-75
2022/06/14 09:43:50;;;;;;;5.47;1.05;;;;;;;18.98;54.63;99317.77;1701327;84;21115;-76
2022/06/14 09:46:37;;;;;;;2.52;1.12;;;;;;;19.02;54.08;99322.77;1701570;84;21054;-75
2022/06/14 09:49:16;;;;;;;4.22;1.22;;;;;;;19.03;53.09;99322.28;1650545;85;21070;-75
2022/06/14 09:51:53;;;;;;;3.62;0.98;;;;;;;18.96;52.80;99323.20;1671975;85;21102;-76
2022/06/14 09:54:51;;;;;;;7.15;1.30;;;;;;;18.91;53.26;99326.23;1701429;84;21106;-76
2022/06/14 09:57:30;;;;;;;5.28;1.07;;;;;;;18.91;53.69;99326.23;1670958;85;21173;-75
2022/06/14 10:00:17;;;;;;;2.25;1.10;;;;;;;19.04;53.31;99319.99;1700466;84;20994;-76
2022/06/14 10:03:11;;;;;;;1.65;0.80;;;;;;;19.12;51.61;99326.46;1701260;84;21139;-75
2022/06/14 10:05:58;;;;;;;1.32;0.90;;;;;;;19.20;50.96;99323.25;1701543;84;21091;-75
2022/06/14 10:08:52;;;;;;;2.60;0.95;;;;;;;19.39;50.50;99329.89;1701450;84;21132;-75
2022/06/14 10:11:36;;;;;;;1.25;0.93;;;;;;;19.44;50.72;99323.73;1671562;85;21130;-75
2022/06/14 10:14:17;;;;;;;2.37;1.37;;;;;;;19.46;50.02;99329.80;1701086;84;21387;-76
2022/06/14 10:17:04;;;;;;;4.03;1.07;;;;;;;19.48;49.92;99326.52;1701560;84;21097;-75
2022/06/14 10:19:49;;;;;;;1.70;1.10;;;;;;;19.48;49.52;99329.19;1710566;82;21582;-75
2022/06/14 10:22:46;;;;;;;4.53;1.10;;;;;;;19.44;49.21;99333.91;1718462;83;27026;-76
2022/06/14 10:25:27;;;;;;;3.47;1.50;;;;;;;19.47;51.05;99328.34;1697915;84;21845;-75
2022/06/14 10:28:25;;;;;;;2.98;1.10;;;;;;;19.55;50.57;99326.91;1698514;84;21086;-76
2022/06/14 10:31:12;;;;;;;4.95;1.17;;;;;;;19.57;50.69;99336.98;1697755;84;21167;-76
2022/06/14 10:33:54;;;;;;;1.50;1.30;;;;;;;19.59;50.62;99327.91;1666901;85;21107;-76
2022/06/14 10:36:49;;;;;;;1.47;0.80;;;;;;;19.67;51.43;99324.19;1639055;85;21107;-77
2022/06/14 10:39:30;;;;;;;1.30;0.90;;;;;;;19.89;48.14;99325.72;1663703;85;22409;-75
2022/06/14 10:42:27;;;;;;;1.02;0.80;;;;;;;19.99;47.09;99319.58;1661777;86;21602;-76
2022/06/14 10:45:14;;;;;;;2.77;1.00;;;;;;;20.04;46.83;99336.09;1670118;85;21012;-76
2022/06/14 10:48:22;;;;;;;4.62;0.90;;;;;;;20.02;47.67;99315.34;1669133;85;21103;-76
2022/06/14 10:51:06;;;;;;;1.32;1.00;;;;;;;20.09;46.45;99316.18;1670222;85;21126;-76
2022/06/14 10:54:06;;;;;;;2.15;0.90;;;;;;;20.25;47.78;99306.51;1662078;84;21146;-76
2022/06/14 10:57:11;;;;;;;1.65;0.82;;;;;;;20.36;47.36;99302.02;1670141;85;21103;-76
2022/06/14 11:00:00;;;;;;;3.12;0.90;;;;;;;20.49;45.59;99308.56;1662113;86;21064;-75
2022/06/14 11:02:52;;;;;;;2.87;1.30;;;;;;;20.59;46.09;99296.66;1670012;85;21087;-76
2022/06/14 11:05:41;;;;;;;1.77;0.80;;;;;;;20.52;45.83;99300.80;1661962;86;21578;-75
2022/06/14 11:08:28;;;;;;;3.98;1.20;;;;;;;20.46;45.83;99306.63;1669946;85;21242;-76
2022/06/14 11:11:43;;;;;;;4.05;0.90;;;;;;;20.40;45.05;99292.78;1662087;86;21082;-76
2022/06/14 11:14:44;;;;;;;5.42;1.02;;;;;;;20.30;45.54;99289.63;1669786;85;21606;-75
2022/06/14 11:17:35;;;;;;;3.60;0.72;;;;;;;20.17;46.11;99296.41;1687529;85;21597;-75
2022/06/14 11:20:34;;;;;;;2.25;0.90;;;;;;;20.06;46.10;99307.09;1695846;84;21054;-77
2022/06/14 11:23:16;;;;;;;3.90;1.00;;;;;;;19.96;47.84;99298.94;1693219;84;21105;-75
2022/06/14 11:26:08;;;;;;;2.27;0.90;;;;;;;20.06;46.61;99307.09;1692774;84;21037;-76
2022/06/14 11:28:52;;;;;;;2.37;0.90;;;;;;;20.09;45.18;99301.50;1692673;84;21149;-75
2022/06/14 11:31:35;;;;;;;2.77;1.20;;;;;;;20.16;43.84;99302.73;1693139;84;21105;-76
2022/06/14 11:34:36;;;;;;;5.05;1.07;;;;;;;20.27;45.62;99286.70;1692792;84;21535;-76
2022/06/14 11:37:29;;;;;;;1.10;1.05;;;;;;;20.56;45.90;99282.20;1693224;84;21094;-76
2022/06/14 11:40:16;;;;;;;2.22;1.10;;;;;;;20.73;43.68;99280.41;1691762;84;21023;-76
2022/06/14 11:43:16;;;;;;;2.15;1.10;;;;;;;20.60;44.86;99279.66;1692398;84;21528;-76
2022/06/14 11:45:55;;;;;;;4.55;1.20;;;;;;;20.62;44.81;99293.75;1692145;84;21147;-75
2022/06/14 11:48:49;;;;;;;8.73;1.40;;;;;;;20.64;44.26;99291.83;1693309;84;21018;-75
2022/06/14 11:51:50;;;;;;;1.77;1.30;;;;;;;20.58;43.90;99289.63;1692662;84;21149;-76
2022/06/14 11:54:37;;;;;;;3.30;1.30;;;;;;;20.52;44.87;99292.78;1693105;84;21004;-76
2022/06/14 11:57:18;;;;;;;2.10;1.20;;;;;;;20.56;44.04;99287.08;1692971;84;21131;-77
2022/06/14 12:00:18;;;;;;;4.97;1.22;;;;;;;20.75;43.14;99281.12;1693060;84;21592;-76
2022/06/14 12:03:23;;;;;;;3.55;1.42;;;;;;;21.00;41.85;99277.81;1692999;84;21074;-77
2022/06/14 12:06:28;;;;;;;2.15;1.10;;;;;;;21.23;41.17;99279.06;1693102;84;21060;-75
2022/06/14 12:09:22;;;;;;;1.85;1.02;;;;;;;21.36;39.25;99281.09;1692590;84;21122;-75
2022/06/14 12:12:20;;;;;;;1.67;1.00;;;;;;;21.46;39.04;99290.04;1692928;84;21704;-76
2022/06/14 12:15:02;;;;;;;4.83;1.20;;;;;;;21.50;40.10;99297.36;1680377;84;21578;-75
2022/06/14 12:17:39;;;;;;;2.08;1.00;;;;;;;21.64;39.22;99282.83;1692026;84;21692;-75
2022/06/14 12:20:16;;;;;;;1.50;0.98;;;;;;;21.81;37.75;99292.11;1682737;84;21139;-76
2022/06/14 12:23:04;;;;;;;1.47;1.07;;;;;;;21.82;36.83;99283.95;1671520;85;21150;-76
2022/06/14 12:28:35;;;;;;;2.25;1.20;;;;;;;21.92;38.15;99281.31;1671441;85;21110;-77
2022/06/14 12:31:08;;;;;;;5.95;1.30;;;;;;;22.01;38.11;99287.73;1671411;85;21452;-77
2022/06/14 12:33:39;;;;;;;4.75;1.10;;;;;;;21.91;38.21;99286.83;1671265;85;21078;-77
2022/06/14 12:36:29;;;;;;;2.52;1.02;;;;;;;21.72;38.43;99289.73;1673040;84;21027;-76
2022/06/14 12:39:02;;;;;;;2.27;1.25;;;;;;;21.71;39.87;99289.36;1661659;86;21072;-77
2022/06/14 12:41:33;;;;;;;1.45;1.30;;;;;;;21.84;39.64;99295.38;1661270;86;21129;-76
2022/06/14 12:44:10;;;;;;;2.00;1.10;;;;;;;21.96;39.33;99298.00;1661385;86;21608;-77
2022/06/14 12:46:40;;;;;;;1.75;1.32;;;;;;;22.02;39.81;99281.38;1660492;86;21255;-76
2022/06/14 12:49:29;;;;;;;3.55;1.20;;;;;;;21.98;39.81;99287.98;1661338;86;21148;-77
2022/06/14 12:52:08;;;;;;;4.22;1.10;;;;;;;21.98;39.43;99292.01;1660775;86;21054;-76
2022/06/14 12:55:07;;;;;;;8.13;1.85;;;;;;;21.93;39.48;99304.45;1661437;86;21833;-76